Pagrindinis puslapis
METAR-TAF:

METAR-TAF

Oro uostai :

Gaines County Airport

Seminole, Teksasas, Jungtinės Amerikos Valstijos

platuma: 32-40-31N, ilguma: 102-39-09W, Aukštis: 1010 m

Dabartinis oras

Ataskaita buvo paskelbta 24 minutes, ne 10:35 UTC
Ramus vėjas
Temperatūra 15°C
Drėgmė 67%
Slėgis 1026 hPa
Matomumas: 16.1 km
Giedras dangus

METAR: KGNC 291035Z AUTO 00000KT 10SM CLR 15/09 A3030 RMK AO2 T01510088

Laikas: 05:59 (10:59 UTC)


TAF: trūkstamas

Orai ataskaitas ir orų prognozės (METAR, TAF).

turimą stotys yra geltonos ir raudonos taškus žemėlapyje.

Perkelti pele per norėdami pamatyti stoties vardą.

Tada spustelėkite, norėdami matyti oro stebėjimo ir prognozės.

Norėdami pakeisti žemėlapį: spustelėkite ant žalios mygtukų su juodo kryžiaus žemyn,; žalią mygtuką su brūkšneliu, jei norite nutolinti; arba žalių rodyklių gretimoms žemėlapius.


METAR-TAF: